TAF Text Data
IDs:
Format:
Raw Decoded Include METAR

Data at: 0525 UTC 28 Sep 2022

METAR for:LWSK (Skopje/Alexander the, IL, MK)
Text:LWSK 280500Z 00000KT CAVOK 09/08 Q1006 NOSIG
Temperature: 9.0°C ( 48°F)
Dewpoint: 8.0°C ( 46°F) [RH = 93%]
Pressure (altimeter):29.70 inches Hg (1006.0 mb)
Winds:calm
Visibility:6 or more sm (10+ km)
Ceiling:ceiling and visibility are OK
Clouds:unknown

TAF for:LWSK (Skopje/Alexander the, IL, MK) issued at 0505 UTC 28 Sep 2022
Text:TAF LWSK 280505Z 2806/2906 VRB02KT CAVOK
Forecast period:0600 UTC 28 September 2022 to 0600 UTC 29 September 2022
Forecast type:FROM: standard forecast or significant change
Winds:variable direction winds at 2 MPH (2 knots; 1.0 m/s)
Visibility:6 or more sm (10+ km)
Clouds:missing
Weather:NSW (no significant weather)
Text:PROB30
Forecast period:0900 to 1300 UTC 28 September 2022
Forecast type:TEMPORARY: The following changes expected for less than half the time period
Winds:from the S (180 degrees) at 12 MPH (10 knots; 5.1 m/s)
Clouds:missing